CST,Max TemperatureF,Mean TemperatureF,Min TemperatureF,Max Dew PointF,MeanDew PointF,Min DewpointF,Max Humidity, Mean Humidity, Min Humidity, Max Sea Level PressureIn, Mean Sea Level PressureIn, Min Sea Level PressureIn, Max VisibilityMiles, Mean VisibilityMiles, Min VisibilityMiles, Max Wind SpeedMPH, Mean Wind SpeedMPH, Max Gust SpeedMPH,PrecipitationIn, CloudCover, Events, WindDirDegrees
2012-11-1,91,74,58,76,64,58,100,83,35,30.08,30.02,29.98,10,5,0,13,2,18,0.00,4,Fog,184
2012-11-2,88,73,58,74,66,59,100,82,43,30.06,30.01,29.97,10,7,0,13,4,17,0.00,2,Fog,152
2012-11-3,87,75,63,76,67,64,100,90,50,30.08,30.04,30.00,10,9,1,16,4,24,0.02,3,Rain,100
2012-11-4,85,74,63,75,67,63,100,87,55,30.09,30.05,30.01,10,9,0,10,3,16,0.01,2,Fog-Rain,63
2012-11-5,89,75,61,74,67,62,100,84,40,30.08,30.01,29.93,10,7,0,13,3,17,0.01,3,Fog,253
2012-11-6,80,66,52,68,48,37,100,60,21,30.16,30.09,30.01,10,10,10,13,5,,0.00,1,,5
2012-11-7,85,66,48,59,52,47,100,73,28,30.19,30.12,30.06,10,10,10,9,2,,0.00,0,,322
2012-11-8,84,68,53,66,58,53,100,74,38,30.17,30.11,30.08,10,10,10,16,5,21,0.00,0,,122
2012-11-9,84,75,66,66,64,61,95,72,46,30.13,30.08,30.04,10,10,10,20,9,26,0.00,2,,140
2012-11-10,84,76,67,70,65,61,88,70,49,30.08,30.02,29.96,10,10,10,21,10,28,0.00,2,,143
2012-11-11,86,75,61,75,70,62,100,79,58,30.12,29.95,29.88,10,9,3,25,14,32,0.02,4,Rain,159
2012-11-12,71,60,50,60,45,32,100,60,25,30.42,30.30,30.13,10,10,7,21,11,26,0.03,3,Rain,8
2012-11-13,62,53,44,41,34,27,76,51,27,30.45,30.38,30.31,10,10,10,21,9,28,0.00,0,,30
2012-11-14,65,53,41,40,36,30,88,53,27,30.40,30.33,30.28,10,10,10,12,5,16,0.00,5,,21
2012-11-15,73,56,40,49,42,35,91,61,25,30.31,30.26,30.19,10,10,10,9,2,,0.00,3,,60
2012-11-16,72,58,43,48,39,32,80,54,23,30.34,30.29,30.25,10,10,10,16,5,21,0.00,3,,28
2012-11-17,74,58,41,49,41,36,96,65,25,30.37,30.31,30.27,10,10,10,8,4,,0.00,0,,57
2012-11-18,77,58,40,53,47,40,100,75,31,30.31,30.26,30.21,10,9,5,10,3,,0.00,0,,87
2012-11-19,80,64,47,61,53,46,100,79,30,30.27,30.21,30.16,10,9,1,9,3,,0.00,0,,89
2012-11-20,83,68,53,66,58,53,100,77,38,30.24,30.18,30.12,10,8,0,8,2,,0.00,2,Fog,103
2012-11-21,84,66,49,65,56,48,100,80,29,30.27,30.20,30.16,10,6,0,12,2,,0.00,1,Fog,114
2012-11-22,81,65,49,68,56,50,100,78,38,30.21,30.15,30.11,10,7,0,16,4,20,0.00,3,Fog,131
2012-11-23,81,69,57,72,64,57,100,90,54,30.31,30.21,30.14,10,9,2,15,4,21,0.48,6,Rain,74
2012-11-24,68,56,45,60,40,33,100,56,26,30.37,30.28,30.18,10,10,10,14,7,18,0.00,2,,27
2012-11-25,78,60,42,67,56,42,100,84,48,30.17,30.06,29.97,10,10,7,12,3,17,0.00,2,,127
2012-11-26,84,72,61,76,68,62,100,89,58,30.07,30.00,29.94,10,6,0,18,6,24,0.00,3,Fog,188
2012-11-27,68,57,45,69,50,46,100,74,54,30.34,30.24,30.07,10,10,3,18,9,29,0.01,3,Rain,345
2012-11-28,71,56,42,54,46,42,100,80,38,30.44,30.35,30.29,10,9,4,9,4,,0.00,0,,52
2012-11-29,75,60,44,64,56,44,100,87,56,30.29,30.22,30.15,10,8,2,13,5,18,0.00,3,,67
2012-11-30,81,70,60,74,66,61,100,90,61,30.18,30.13,30.08,10,7,2,13,5,17,0.17,4,Rain,120